createdAt,value
2022-10-18T04:45:59.644Z,99.99
2022-10-18T04:47:00.631Z,99.99
2022-10-18T04:48:00.611Z,99.99
2022-10-18T04:49:00.604Z,99.99
2022-10-18T04:50:00.609Z,99.99
2022-10-18T04:51:00.585Z,99.99
2022-10-18T04:52:00.576Z,99.99
2022-10-18T04:53:00.585Z,99.99
2022-10-18T04:54:00.556Z,99.99
2022-10-18T04:55:00.554Z,99.99
2022-10-18T04:56:00.524Z,99.99
2022-10-18T04:57:00.519Z,99.99
2022-10-18T04:58:00.502Z,99.99
2022-10-18T04:59:00.500Z,99.99
2022-10-18T05:00:00.497Z,99.99
2022-10-18T05:01:00.488Z,99.99
2022-10-18T05:02:00.590Z,99.99
2022-10-18T05:03:00.453Z,99.99
2022-10-18T05:04:00.440Z,99.99
2022-10-18T05:05:00.446Z,99.99
2022-10-18T05:06:03.189Z,99.99
2022-10-18T05:07:00.416Z,99.99
2022-10-18T05:08:00.397Z,99.99
2022-10-18T05:09:00.398Z,99.99
2022-10-18T05:10:00.376Z,99.99
2022-10-18T05:11:00.438Z,99.99
2022-10-18T05:12:00.352Z,99.99
2022-10-18T05:13:00.348Z,99.99
2022-10-18T05:14:00.350Z,99.99
2022-10-18T05:15:00.327Z,99.99
2022-10-18T05:16:00.364Z,99.99
2022-10-18T05:17:00.302Z,99.99
2022-10-18T05:18:00.283Z,99.99
2022-10-18T05:19:00.276Z,99.99
2022-10-18T05:20:00.390Z,99.99
2022-10-18T05:21:00.260Z,99.99
2022-10-18T05:22:00.243Z,99.99
2022-10-18T05:23:00.242Z,99.99
2022-10-18T05:24:00.232Z,99.99
2022-10-18T05:25:00.230Z,99.99
2022-10-18T05:26:00.203Z,99.99
2022-10-18T05:27:00.203Z,99.99
2022-10-18T05:28:06.265Z,99.99
2022-10-18T05:29:00.337Z,99.99
2022-10-18T05:30:02.922Z,99.99
2022-10-18T05:31:00.157Z,99.99
2022-10-18T05:32:00.141Z,99.99
2022-10-18T05:33:00.129Z,99.99
2022-10-18T05:34:00.134Z,99.99
2022-10-18T05:35:00.118Z,99.99
2022-10-18T05:36:00.125Z,99.99
2022-10-18T05:37:00.094Z,99.99
2022-10-18T05:38:00.072Z,99.99
2022-10-18T05:39:02.552Z,99.99
2022-10-18T05:40:00.053Z,99.99
2022-10-18T05:41:00.045Z,99.99
2022-10-18T05:42:00.028Z,99.99
2022-10-18T05:43:00.027Z,99.99
2022-10-18T05:44:00.023Z,99.99
2022-10-18T05:45:00.000Z,99.99
2022-10-18T05:46:00.012Z,99.99
2022-10-18T05:47:00.001Z,99.99
2022-10-18T05:47:59.967Z,99.99
2022-10-18T05:48:59.983Z,99.99
2022-10-18T05:49:59.940Z,99.99
2022-10-18T05:50:59.958Z,99.99
2022-10-18T05:51:59.926Z,99.99
2022-10-18T05:53:11.856Z,99.99
2022-10-18T05:53:59.920Z,99.99
2022-10-18T05:54:59.913Z,99.99
2022-10-18T05:55:59.881Z,99.99
2022-10-18T05:56:59.872Z,99.99
2022-10-18T05:57:59.854Z,99.99
2022-10-18T05:58:59.867Z,99.99
2022-10-18T05:59:59.839Z,99.99
2022-10-18T06:00:59.869Z,99.99
2022-10-18T06:01:59.811Z,99.99
2022-10-18T06:03:00.519Z,99.99
2022-10-18T06:03:59.820Z,99.99
2022-10-18T06:04:59.785Z,99.99
2022-10-18T06:05:59.768Z,99.99
2022-10-18T06:06:59.771Z,99.99
2022-10-18T06:07:59.752Z,99.99
2022-10-18T06:08:59.757Z,99.99
2022-10-18T06:09:59.737Z,99.99
2022-10-18T06:10:59.718Z,99.99
2022-10-18T06:11:59.711Z,99.99
2022-10-18T06:12:59.703Z,99.99
2022-10-18T06:13:59.706Z,99.99
2022-10-18T06:14:59.694Z,99.99
2022-10-18T06:15:59.666Z,99.99
2022-10-18T06:16:59.660Z,99.99
2022-10-18T06:17:59.645Z,99.99
2022-10-18T06:18:59.650Z,99.99
2022-10-18T06:19:59.622Z,99.99
2022-10-18T06:20:59.608Z,99.99
2022-10-18T06:21:59.626Z,99.99
2022-10-18T06:22:59.588Z,99.99
2022-10-18T06:23:59.587Z,99.99
2022-10-18T06:24:59.567Z,99.99
2022-10-18T06:25:59.556Z,99.99
2022-10-18T06:26:59.581Z,99.99
2022-10-18T06:27:59.537Z,99.99
2022-10-18T06:28:59.582Z,99.99
2022-10-18T06:29:59.508Z,99.99
2022-10-18T06:30:59.514Z,99.99
2022-10-18T06:31:59.494Z,99.99
2022-10-18T06:32:59.480Z,99.99
2022-10-18T06:33:59.487Z,99.99
2022-10-18T06:34:59.464Z,99.99
2022-10-18T06:35:59.448Z,99.99
2022-10-18T06:36:59.444Z,99.99
2022-10-18T06:37:59.433Z,99.99
2022-10-18T06:38:59.441Z,99.99
2022-10-18T06:39:59.403Z,99.99
2022-10-18T06:40:59.405Z,99.99
2022-10-18T06:41:59.389Z,99.99
2022-10-18T06:43:10.577Z,99.99
2022-10-18T06:43:59.380Z,99.99
2022-10-18T06:44:59.358Z,99.99
2022-10-18T06:45:59.345Z,99.99
2022-10-18T06:46:59.334Z,99.99
2022-10-18T06:47:59.321Z,99.99
2022-10-18T06:48:59.331Z,99.99
2022-10-18T06:49:59.299Z,99.99
2022-10-18T06:50:59.291Z,99.99
2022-10-18T06:51:59.274Z,99.99
2022-10-18T06:52:59.274Z,99.99
2022-10-18T06:54:13.393Z,99.99
2022-10-18T06:54:59.252Z,99.99
2022-10-18T06:55:59.235Z,99.99
2022-10-18T06:56:59.227Z,99.99
2022-10-18T06:57:59.211Z,99.99
2022-10-18T06:59:59.195Z,99.99
2022-10-18T07:00:59.186Z,99.99
2022-10-18T07:01:59.238Z,99.99
2022-10-18T07:02:59.159Z,99.99
2022-10-18T07:03:59.158Z,99.99
2022-10-18T07:04:59.144Z,99.99
2022-10-18T07:05:59.126Z,99.99
2022-10-18T07:06:59.118Z,99.99
2022-10-18T07:07:59.108Z,99.99
2022-10-18T07:08:59.108Z,99.99
2022-10-18T07:09:59.096Z,99.99
2022-10-18T07:10:59.078Z,99.99
2022-10-18T07:11:59.063Z,99.99
2022-10-18T07:13:13.572Z,99.99
2022-10-18T07:13:59.063Z,99.99
2022-10-18T07:14:59.030Z,99.99
2022-10-18T07:15:59.025Z,99.99
2022-10-18T07:16:59.007Z,99.99
2022-10-18T07:17:58.997Z,99.99
2022-10-18T07:18:58.997Z,99.99
2022-10-18T07:19:58.974Z,99.99
2022-10-18T07:20:58.964Z,99.99
2022-10-18T07:21:58.954Z,99.99
2022-10-18T07:22:58.947Z,99.99
2022-10-18T07:23:58.967Z,99.99
2022-10-18T07:24:58.925Z,99.99
2022-10-18T07:25:58.916Z,99.99
2022-10-18T07:26:58.900Z,99.99
2022-10-18T07:27:58.892Z,99.99
2022-10-18T07:28:59.073Z,99.99
2022-10-18T07:29:58.873Z,99.99
2022-10-18T07:31:02.445Z,99.99
2022-10-18T07:31:58.857Z,99.99
2022-10-18T07:32:58.835Z,99.99
2022-10-18T07:33:58.842Z,99.99
2022-10-18T07:34:58.865Z,99.99
2022-10-18T07:35:58.803Z,99.99
2022-10-18T07:36:58.790Z,99.99
2022-10-18T07:37:58.779Z,99.99
2022-10-18T07:38:58.777Z,99.99
2022-10-18T07:39:58.759Z,99.99
2022-10-18T07:40:58.742Z,99.99
2022-10-18T07:41:58.736Z,99.99
2022-10-18T07:43:02.723Z,99.99
2022-10-18T07:43:58.736Z,99.99
2022-10-18T07:44:58.699Z,99.99
2022-10-18T07:45:58.697Z,99.99
2022-10-18T07:46:58.683Z,99.99
2022-10-18T07:47:58.673Z,99.99
2022-10-18T07:48:58.672Z,99.99
2022-10-18T07:49:58.653Z,99.99
2022-10-18T07:50:58.637Z,99.99
2022-10-18T07:51:58.635Z,99.99
2022-10-18T07:52:58.620Z,99.99
2022-10-18T07:53:58.622Z,99.99
2022-10-18T07:54:58.598Z,99.99
2022-10-18T07:55:58.588Z,99.99
2022-10-18T07:56:58.573Z,99.99
2022-10-18T07:57:58.571Z,99.99
2022-10-18T07:58:58.563Z,99.99
2022-10-18T07:59:58.548Z,99.99
2022-10-18T08:00:58.530Z,99.99
2022-10-18T08:01:58.544Z,99.99
2022-10-18T08:02:58.508Z,99.99
2022-10-18T08:04:01.056Z,99.99
2022-10-18T08:04:58.487Z,99.99
2022-10-18T08:05:58.536Z,99.99
2022-10-18T08:06:58.474Z,99.99
2022-10-18T08:07:58.459Z,99.99
2022-10-18T08:08:58.463Z,99.99
2022-10-18T08:09:58.436Z,99.99
2022-10-18T08:10:58.421Z,99.99
2022-10-18T08:11:58.413Z,99.99
2022-10-18T08:12:58.400Z,99.99
2022-10-18T08:13:58.412Z,99.99
2022-10-18T08:14:58.377Z,99.99
2022-10-18T08:15:58.368Z,99.99
2022-10-18T08:16:58.360Z,99.99
2022-10-18T08:17:58.510Z,99.99
2022-10-18T08:18:58.347Z,99.99
2022-10-18T08:20:11.903Z,99.99
2022-10-18T08:20:58.326Z,99.99
2022-10-18T08:21:58.312Z,99.99
2022-10-18T08:23:00.299Z,99.99
2022-10-18T08:23:58.281Z,99.99
2022-10-18T08:24:58.274Z,99.99
2022-10-18T08:25:58.268Z,99.99
2022-10-18T08:26:58.252Z,99.99
2022-10-18T08:27:58.246Z,99.99
2022-10-18T08:29:17.590Z,99.99
2022-10-18T08:29:58.282Z,99.99
2022-10-18T08:30:58.205Z,99.99
2022-10-18T08:31:58.200Z,99.99
2022-10-18T08:32:58.187Z,99.99
2022-10-18T08:33:58.191Z,99.99
2022-10-18T08:34:58.162Z,99.99
2022-10-18T08:35:58.155Z,99.99
2022-10-18T08:36:58.145Z,99.99
2022-10-18T08:37:58.132Z,99.99
2022-10-18T08:38:58.132Z,99.99
2022-10-18T08:39:58.111Z,99.99
2022-10-18T08:40:58.095Z,99.99
2022-10-18T08:41:58.091Z,99.99
2022-10-18T08:42:58.076Z,99.99
2022-10-18T08:43:58.409Z,99.99
2022-10-18T08:44:58.053Z,99.99
2022-10-18T08:45:58.049Z,99.99
2022-10-18T08:46:58.028Z,99.99
2022-10-18T08:47:58.021Z,99.99
2022-10-18T08:48:58.028Z,99.99
2022-10-18T08:49:58.002Z,99.99
2022-10-18T08:50:57.996Z,99.99
2022-10-18T08:51:57.983Z,99.99
2022-10-18T08:52:57.964Z,99.99
2022-10-18T08:53:57.971Z,99.99
2022-10-18T08:54:57.945Z,99.99
2022-10-18T08:55:57.935Z,99.99
2022-10-18T08:56:57.923Z,99.99
2022-10-18T08:57:57.931Z,99.99
2022-10-18T08:58:57.903Z,99.99
2022-10-18T08:59:57.891Z,99.99
2022-10-18T09:00:57.879Z,99.99
2022-10-18T09:01:57.869Z,99.99
2022-10-18T09:02:57.907Z,99.99
2022-10-18T09:03:57.849Z,99.99
2022-10-18T09:04:57.836Z,99.99
2022-10-18T09:05:57.825Z,99.99
2022-10-18T09:06:57.816Z,99.99
2022-10-18T09:07:57.806Z,99.99
2022-10-18T09:08:57.809Z,99.99
2022-10-18T09:09:57.782Z,99.99
2022-10-18T09:12:01.033Z,99.99
2022-10-18T09:12:57.751Z,99.99
2022-10-18T09:13:57.755Z,99.99
2022-10-18T09:14:57.727Z,99.99
2022-10-18T09:15:57.720Z,99.99
2022-10-18T09:16:57.706Z,99.99
2022-10-18T09:17:57.700Z,99.99
2022-10-18T09:18:57.699Z,99.99
2022-10-18T09:19:57.722Z,99.99
2022-10-18T09:20:57.668Z,99.99
2022-10-18T09:21:57.653Z,99.99
2022-10-18T09:22:57.636Z,99.99
2022-10-18T09:23:57.653Z,99.99
2022-10-18T09:24:57.616Z,99.99
2022-10-18T09:25:57.615Z,99.99
2022-10-18T09:26:57.598Z,99.99
2022-10-18T09:27:57.603Z,99.99
2022-10-18T09:28:57.682Z,99.99
2022-10-18T09:29:57.567Z,99.99
2022-10-18T09:30:59.528Z,99.99
2022-10-18T09:31:57.545Z,99.99
2022-10-18T09:32:57.552Z,99.99
2022-10-18T09:33:57.529Z,99.99
2022-10-18T09:34:57.516Z,99.99
2022-10-18T09:35:57.506Z,99.99
2022-10-18T09:36:57.484Z,99.99
2022-10-18T09:37:57.495Z,99.99
2022-10-18T09:39:00.271Z,99.99
2022-10-18T09:39:57.462Z,99.99
2022-10-18T09:40:57.446Z,99.99
2022-10-18T09:41:57.435Z,99.99
2022-10-18T09:42:57.441Z,99.99
2022-10-18T09:43:57.419Z,99.99
2022-10-18T09:44:57.405Z,99.99
2022-10-18T09:45:57.397Z,99.99
2022-10-18T09:46:57.373Z,99.99
2022-10-18T09:47:57.372Z,99.99
2022-10-18T09:48:57.370Z,99.99
2022-10-18T09:49:57.350Z,99.99
2022-10-18T09:50:57.330Z,99.99
2022-10-18T09:51:57.328Z,99.99
2022-10-18T09:52:57.311Z,99.99
2022-10-18T09:53:57.327Z,99.99
2022-10-18T09:54:57.292Z,99.99
2022-10-18T09:55:57.284Z,99.99
2022-10-18T09:56:57.318Z,99.99
2022-10-18T09:57:57.265Z,99.99
2022-10-18T09:58:57.257Z,99.99
2022-10-18T09:59:57.243Z,99.99
2022-10-18T10:00:57.227Z,99.99
2022-10-18T10:01:57.231Z,99.99
2022-10-18T10:02:57.204Z,99.99
2022-10-18T10:03:57.215Z,99.99
2022-10-18T10:04:57.299Z,99.99
2022-10-18T10:05:57.175Z,99.99
2022-10-18T10:06:57.164Z,99.99
2022-10-18T10:07:57.238Z,99.99
2022-10-18T10:08:57.153Z,99.99
2022-10-18T10:09:57.128Z,99.99
2022-10-18T10:10:57.115Z,99.99
2022-10-18T10:11:57.113Z,99.99
2022-10-18T10:12:57.096Z,99.99
2022-10-18T10:13:57.101Z,98.49
2022-10-18T10:14:57.072Z,97.78
2022-10-18T10:15:57.067Z,97.59
2022-10-18T10:16:57.053Z,96.19
2022-10-18T10:17:57.043Z,95.33
2022-10-18T10:18:57.040Z,95.49
2022-10-18T10:19:57.019Z,96.25
2022-10-18T10:20:57.017Z,94.95
2022-10-18T10:21:57.003Z,90.79
2022-10-18T10:22:56.982Z,88.18
2022-10-18T10:23:56.991Z,87.66
2022-10-18T10:24:56.965Z,86.71
2022-10-18T10:25:56.956Z,87.20
2022-10-18T10:26:56.943Z,87.41
2022-10-18T10:27:56.941Z,92.11
2022-10-18T10:28:57.008Z,93.05
2022-10-18T10:29:56.918Z,96.78
2022-10-18T10:30:56.896Z,95.51
2022-10-18T10:31:56.892Z,96.21
2022-10-18T10:32:56.877Z,99.54
2022-10-18T10:33:56.895Z,99.13
2022-10-18T10:34:56.863Z,99.99
2022-10-18T10:35:56.847Z,99.99
2022-10-18T10:36:56.833Z,97.36
2022-10-18T10:37:56.825Z,99.93
2022-10-18T10:38:56.814Z,99.93
2022-10-18T10:40:17.263Z,99.99
2022-10-18T10:40:56.810Z,99.99
2022-10-18T10:41:56.780Z,99.99
2022-10-18T10:43:04.288Z,99.99
2022-10-18T10:43:56.763Z,99.99
2022-10-18T10:44:56.763Z,99.99
2022-10-18T10:45:56.736Z,99.99
2022-10-18T10:46:56.723Z,99.99
2022-10-18T10:47:56.713Z,99.99
2022-10-18T10:49:15.323Z,99.99
2022-10-18T10:49:56.714Z,99.99
2022-10-18T10:50:56.681Z,99.99
2022-10-18T10:52:08.325Z,99.99
2022-10-18T10:52:56.667Z,99.99
2022-10-18T10:53:56.663Z,99.99
2022-10-18T10:55:05.729Z,99.99
2022-10-18T10:55:56.641Z,99.99
2022-10-18T10:56:56.614Z,99.99
2022-10-18T10:57:56.613Z,99.99
2022-10-18T10:58:56.656Z,99.99
2022-10-18T10:59:56.598Z,99.99
2022-10-18T11:00:56.571Z,99.99
2022-10-18T11:01:56.581Z,99.99
2022-10-18T11:03:05.852Z,99.99
2022-10-18T11:03:56.697Z,99.99
2022-10-18T11:04:56.539Z,99.99
2022-10-18T11:05:56.528Z,99.99
2022-10-18T11:06:56.500Z,99.99
2022-10-18T11:07:56.498Z,99.99
2022-10-18T11:08:56.485Z,99.99
2022-10-18T11:09:56.489Z,99.99
2022-10-18T11:10:56.464Z,99.99
2022-10-18T11:11:56.456Z,99.99
2022-10-18T11:12:56.439Z,99.99
2022-10-18T11:14:20.607Z,99.99
2022-10-18T11:14:56.439Z,99.73
2022-10-18T11:15:56.408Z,99.99
2022-10-18T11:16:56.394Z,99.99
2022-10-18T11:17:56.394Z,99.99
2022-10-18T11:18:56.382Z,99.99
2022-10-18T11:19:56.365Z,99.99
2022-10-18T11:20:56.492Z,99.99
2022-10-18T11:21:56.345Z,99.99
2022-10-18T11:22:56.335Z,99.99
2022-10-18T11:23:56.332Z,99.99
2022-10-18T11:24:56.310Z,99.99
2022-10-18T11:25:56.295Z,99.99
2022-10-18T11:26:56.286Z,99.68
2022-10-18T11:27:56.269Z,99.99
2022-10-18T11:28:56.314Z,97.31
2022-10-18T11:29:56.253Z,98.02
2022-10-18T11:30:56.244Z,99.73
2022-10-18T11:31:56.233Z,99.58
2022-10-18T11:32:56.220Z,96.71
2022-10-18T11:34:08.615Z,96.06
2022-10-18T11:34:56.204Z,93.74
2022-10-18T11:36:00.216Z,93.35
2022-10-18T11:37:15.973Z,91.54
2022-10-18T11:37:56.171Z,92.09
2022-10-18T11:38:56.174Z,95.11
2022-10-18T11:39:56.144Z,93.76
2022-10-18T11:40:56.137Z,93.46
2022-10-18T11:41:56.128Z,89.73
2022-10-18T11:42:56.117Z,83.11
2022-10-18T11:44:03.931Z,80.27
2022-10-18T11:44:56.098Z,80.05
2022-10-18T11:45:56.077Z,77.74
2022-10-18T11:46:56.069Z,77.44
2022-10-18T11:47:56.102Z,79.49
2022-10-18T11:48:56.068Z,75.74
2022-10-18T11:49:56.038Z,74.13
2022-10-18T11:50:56.035Z,76.74
2022-10-18T11:52:07.970Z,80.40
2022-10-18T11:52:56.023Z,83.75
2022-10-18T11:53:56.006Z,81.74
2022-10-18T11:54:55.989Z,82.26
2022-10-18T11:55:55.978Z,81.73
2022-10-18T11:56:55.974Z,82.46
2022-10-18T11:57:55.955Z,81.46
2022-10-18T11:58:55.970Z,86.38
2022-10-18T11:59:55.972Z,89.09
2022-10-18T12:00:55.930Z,90.61
2022-10-18T12:01:55.912Z,91.64
2022-10-18T12:02:55.990Z,83.73
2022-10-18T12:03:55.910Z,82.75
2022-10-18T12:05:21.985Z,80.04
2022-10-18T12:05:55.877Z,85.90
2022-10-18T12:06:55.865Z,81.99
2022-10-18T12:07:55.851Z,78.59
2022-10-18T12:08:55.868Z,78.93
2022-10-18T12:09:55.837Z,83.89
2022-10-18T12:11:10.477Z,78.69
2022-10-18T12:11:56.086Z,76.85
2022-10-18T12:12:55.800Z,76.04
2022-10-18T12:13:55.787Z,78.42
2022-10-18T12:14:55.796Z,75.01
2022-10-18T12:15:55.815Z,75.90
2022-10-18T12:17:20.321Z,73.96
2022-10-18T12:17:56.179Z,73.59
2022-10-18T12:18:55.740Z,73.96
2022-10-18T12:19:55.733Z,68.29
2022-10-18T12:20:55.715Z,70.69
2022-10-18T12:21:55.697Z,74.51
2022-10-18T12:22:55.708Z,77.15
2022-10-18T12:23:55.682Z,73.57
2022-10-18T12:24:55.691Z,74.37
2022-10-18T12:25:55.653Z,74.68
2022-10-18T12:26:55.651Z,72.56
2022-10-18T12:27:55.713Z,72.13
2022-10-18T12:28:55.684Z,74.13
2022-10-18T12:29:55.625Z,72.63
2022-10-18T12:30:55.605Z,71.96
2022-10-18T12:31:55.590Z,73.86
2022-10-18T12:33:03.522Z,67.72
2022-10-18T12:33:55.579Z,73.16
2022-10-18T12:34:55.579Z,71.59
2022-10-18T12:35:55.570Z,75.40
2022-10-18T12:36:55.590Z,71.86
2022-10-18T12:37:55.522Z,73.86
2022-10-18T12:38:55.520Z,74.19
2022-10-18T12:40:09.813Z,71.79
2022-10-18T12:40:55.499Z,67.99
2022-10-18T12:41:55.484Z,71.23
2022-10-18T12:42:55.470Z,70.19
2022-10-18T12:43:55.458Z,75.68
2022-10-18T12:44:55.467Z,77.16
2022-10-18T12:45:55.431Z,74.90
2022-10-18T12:46:55.433Z,70.79
2022-10-18T12:47:55.410Z,70.43
2022-10-18T12:48:55.403Z,71.19
2022-10-18T12:49:55.404Z,73.13
2022-10-18T12:50:55.383Z,72.30
2022-10-18T12:51:55.371Z,76.71
2022-10-18T12:52:55.359Z,77.52
2022-10-18T12:53:55.349Z,74.21
2022-10-18T12:54:55.364Z,72.74
2022-10-18T12:55:55.323Z,70.93
2022-10-18T12:56:55.423Z,74.14
2022-10-18T12:57:55.297Z,73.10
2022-10-18T12:58:55.291Z,70.56
2022-10-18T12:59:55.291Z,69.73
2022-10-18T13:00:55.267Z,68.56
2022-10-18T13:01:55.468Z,66.59
2022-10-18T13:02:55.245Z,72.77
2022-10-18T13:03:55.348Z,74.84
2022-10-18T13:04:55.266Z,70.96
2022-10-18T13:05:56.225Z,71.47
2022-10-18T13:06:55.204Z,77.39
2022-10-18T13:07:55.189Z,77.43
2022-10-18T13:08:55.183Z,81.43
2022-10-18T13:09:55.180Z,80.66
2022-10-18T13:10:55.161Z,80.33
2022-10-18T13:11:58.599Z,81.89
2022-10-18T13:12:55.144Z,82.33
2022-10-18T13:13:55.157Z,83.44
2022-10-18T13:15:05.933Z,84.49
2022-10-18T13:15:55.106Z,87.41
2022-10-18T13:16:55.092Z,87.88
2022-10-18T13:17:55.079Z,86.51
2022-10-18T13:18:55.074Z,84.89
2022-10-18T13:20:20.617Z,87.40
2022-10-18T13:20:55.082Z,82.07
2022-10-18T13:21:55.035Z,84.21
2022-10-18T13:22:55.031Z,76.93
2022-10-18T13:23:55.011Z,77.23
2022-10-18T13:24:55.022Z,79.42
2022-10-18T13:25:55.011Z,82.58
2022-10-18T13:27:04.072Z,82.07
2022-10-18T13:27:54.981Z,78.61
2022-10-18T13:28:55.012Z,82.24
2022-10-18T13:29:54.965Z,84.91
2022-10-18T13:30:54.944Z,79.88
2022-10-18T13:31:54.925Z,78.31
2022-10-18T13:32:54.919Z,81.39
2022-10-18T13:33:54.906Z,76.32
2022-10-18T13:34:54.923Z,81.65
2022-10-18T13:35:54.915Z,83.37
2022-10-18T13:36:54.875Z,81.15
2022-10-18T13:37:54.867Z,75.46
2022-10-18T13:38:54.853Z,75.35
2022-10-18T13:39:54.842Z,82.50
2022-10-18T13:40:54.844Z,80.73
2022-10-18T13:41:57.508Z,79.05
2022-10-18T13:42:54.818Z,79.25
2022-10-18T13:43:54.793Z,78.69
2022-10-18T13:44:54.794Z,75.30
2022-10-18T13:45:54.791Z,80.04
2022-10-18T13:46:54.768Z,75.63
2022-10-18T13:47:54.749Z,79.87
2022-10-18T13:48:54.747Z,78.50
2022-10-18T13:49:58.598Z,75.70
2022-10-18T13:50:54.744Z,77.88
2022-10-18T13:51:54.706Z,78.75
2022-10-18T13:52:54.704Z,75.63
2022-10-18T13:53:54.687Z,79.76
2022-10-18T13:54:54.680Z,73.25
2022-10-18T13:55:55.927Z,80.46
2022-10-18T13:56:54.663Z,77.17
2022-10-18T13:57:54.648Z,73.25
2022-10-18T13:59:13.149Z,76.77
2022-10-18T13:59:54.651Z,78.59
2022-10-18T14:00:54.617Z,78.99
2022-10-18T14:01:54.635Z,75.36
2022-10-18T14:02:59.623Z,72.14
2022-10-18T14:03:58.123Z,74.66
2022-10-18T14:05:02.102Z,70.62
2022-10-18T14:05:54.589Z,70.93
2022-10-18T14:06:58.723Z,71.53
2022-10-18T14:07:54.557Z,72.24
2022-10-18T14:08:54.535Z,71.44
2022-10-18T14:09:56.843Z,73.65
2022-10-18T14:11:03.253Z,71.44
2022-10-18T14:11:54.505Z,75.76
2022-10-18T14:12:54.488Z,76.07
2022-10-18T14:13:54.480Z,76.97
2022-10-18T14:14:54.468Z,77.51
2022-10-18T14:15:54.466Z,79.13
2022-10-18T14:16:54.448Z,72.47
2022-10-18T14:17:54.444Z,77.72
2022-10-18T14:18:54.433Z,75.03
2022-10-18T14:19:54.415Z,73.11
2022-10-18T14:21:12.911Z,76.84
2022-10-18T14:21:54.426Z,72.38
2022-10-18T14:22:54.391Z,72.17
2022-10-18T14:23:54.373Z,76.10
2022-10-18T14:24:54.367Z,76.31
2022-10-18T14:25:54.360Z,77.35
2022-10-18T14:26:54.362Z,74.52
2022-10-18T14:27:54.611Z,73.32
2022-10-18T14:29:00.023Z,76.75
2022-10-18T14:29:54.317Z,71.70
2022-10-18T14:30:54.301Z,70.79
2022-10-18T14:31:54.306Z,74.83
2022-10-18T14:32:54.280Z,73.42
2022-10-18T14:33:57.566Z,75.74
2022-10-18T14:35:09.249Z,72.91
2022-10-18T14:35:54.252Z,71.80
2022-10-18T14:36:54.257Z,72.31
2022-10-18T14:37:54.306Z,75.50
2022-10-18T14:38:54.219Z,72.61
2022-10-18T14:39:54.204Z,74.43
2022-10-18T14:40:54.201Z,71.91
2022-10-18T14:41:54.198Z,71.00
2022-10-18T14:42:54.175Z,73.55
2022-10-18T14:43:54.160Z,72.51
2022-10-18T14:44:55.736Z,74.26
2022-10-18T14:45:54.139Z,73.55
2022-10-18T14:46:54.142Z,71.73
2022-10-18T14:47:54.117Z,70.22
2022-10-18T14:48:54.113Z,73.75
2022-10-18T14:49:54.094Z,73.96
2022-10-18T14:50:54.088Z,72.95
2022-10-18T14:51:54.094Z,72.14
2022-10-18T14:52:54.069Z,71.03
2022-10-18T14:53:54.059Z,70.22
2022-10-18T14:54:54.049Z,72.95
2022-10-18T14:55:54.035Z,72.48
2022-10-18T14:56:54.047Z,68.91
2022-10-18T14:57:54.011Z,70.42
2022-10-18T14:58:54.008Z,71.77
2022-10-18T14:59:53.994Z,74.60
2022-10-18T15:00:53.986Z,74.29
2022-10-18T15:01:53.985Z,75.95
2022-10-18T15:02:53.962Z,75.64
2022-10-18T15:03:54.077Z,73.11
2022-10-18T15:04:53.943Z,73.82
2022-10-18T15:05:53.926Z,75.44
2022-10-18T15:06:53.941Z,71.30
2022-10-18T15:07:53.906Z,71.20
2022-10-18T15:08:53.900Z,73.42
2022-10-18T15:09:53.887Z,72.00
2022-10-18T15:10:53.887Z,73.52
2022-10-18T15:11:53.875Z,75.44
2022-10-18T15:13:10.447Z,73.66
2022-10-18T15:13:53.847Z,74.57
2022-10-18T15:14:53.838Z,74.97
2022-10-18T15:15:53.824Z,74.97
2022-10-18T15:16:53.845Z,76.39
2022-10-18T15:17:53.805Z,72.14
2022-10-18T15:18:53.799Z,74.37
2022-10-18T15:19:53.778Z,74.19
2022-10-18T15:20:53.786Z,75.51
2022-10-18T15:22:08.061Z,75.51
2022-10-18T15:22:53.763Z,74.74
2022-10-18T15:23:53.741Z,78.48
2022-10-18T15:24:53.744Z,77.97
2022-10-18T15:25:53.762Z,79.63
2022-10-18T15:26:54.023Z,77.50
2022-10-18T15:27:53.718Z,73.86
2022-10-18T15:28:53.889Z,79.63
2022-10-18T15:29:53.770Z,76.29
2022-10-18T15:30:53.699Z,74.63
2022-10-18T15:31:53.668Z,76.66
2022-10-18T15:32:53.645Z,78.31
2022-10-18T15:33:53.627Z,75.65
2022-10-18T15:34:53.626Z,76.86
2022-10-18T15:35:53.618Z,77.71
2022-10-18T15:36:53.620Z,78.72
2022-10-18T15:37:53.585Z,77.91
2022-10-18T15:38:53.587Z,78.45
2022-10-18T15:39:53.571Z,74.10
2022-10-18T15:40:53.552Z,77.24
2022-10-18T15:41:53.567Z,80.18
2022-10-18T15:42:53.529Z,79.06
2022-10-18T15:43:53.528Z,80.92
2022-10-18T15:44:53.511Z,81.52
2022-10-18T15:45:53.511Z,80.45
2022-10-18T15:46:53.510Z,79.74
2022-10-18T15:47:53.570Z,81.37
2022-10-18T15:48:53.466Z,83.63
2022-10-18T15:49:53.465Z,83.33
2022-10-18T15:50:53.444Z,83.37
2022-10-18T15:51:53.457Z,83.37
2022-10-18T15:52:53.423Z,83.51
2022-10-18T15:53:53.420Z,85.24
2022-10-18T15:54:53.401Z,84.63
2022-10-18T15:55:53.394Z,86.19
2022-10-18T15:56:53.393Z,84.77
2022-10-18T15:57:53.370Z,85.58
2022-10-18T15:58:53.356Z,85.92
2022-10-18T15:59:53.361Z,85.41
2022-10-18T16:00:53.333Z,84.64
2022-10-18T16:01:53.468Z,85.46
2022-10-18T16:02:53.314Z,85.66
2022-10-18T16:04:53.291Z,86.07
2022-10-18T16:05:53.292Z,86.57
2022-10-18T16:06:53.287Z,87.29
2022-10-18T16:07:53.265Z,85.70
2022-10-18T16:08:53.249Z,86.82
2022-10-18T16:09:53.246Z,84.99
2022-10-18T16:10:53.225Z,85.70
2022-10-18T16:11:57.008Z,86.82
2022-10-18T16:13:56.374Z,86.25
2022-10-18T16:14:53.184Z,86.96
2022-10-18T16:15:53.180Z,87.26
2022-10-18T16:16:53.190Z,87.30
2022-10-18T16:17:53.153Z,88.12
2022-10-18T16:18:53.142Z,87.51
2022-10-18T16:19:53.127Z,88.83
2022-10-18T16:20:53.115Z,89.24
2022-10-18T16:21:53.273Z,88.73
2022-10-18T16:22:53.090Z,88.06
2022-10-18T16:23:53.097Z,89.69
2022-10-18T16:24:53.076Z,87.45
2022-10-18T16:25:53.066Z,88.57
2022-10-18T16:26:53.086Z,86.83
2022-10-18T16:27:53.050Z,86.94
2022-10-18T16:28:53.192Z,88.26
2022-10-18T16:29:53.025Z,88.16
2022-10-18T16:30:53.004Z,88.57
2022-10-18T16:31:53.014Z,88.40
2022-10-18T16:32:52.984Z,88.00
2022-10-18T16:33:52.985Z,87.49
2022-10-18T16:34:52.964Z,88.40
2022-10-18T16:35:52.954Z,89.63
2022-10-18T16:36:52.954Z,89.83
2022-10-18T16:37:52.936Z,90.03
2022-10-18T16:38:52.917Z,88.81
2022-10-18T16:39:52.917Z,90.03
2022-10-18T16:40:52.897Z,89.94
2022-10-18T16:41:52.905Z,90.14
2022-10-18T16:42:52.877Z,89.73
2022-10-18T16:43:52.868Z,90.44
2022-10-18T16:44:52.860Z,91.30
2022-10-18T16:45:52.849Z,91.81
2022-10-18T16:46:55.487Z,92.11
2022-10-18T16:47:52.827Z,91.81
2022-10-18T16:48:52.814Z,91.61
2022-10-18T16:49:52.813Z,93.03
2022-10-18T16:50:52.795Z,93.03
2022-10-18T16:51:52.810Z,93.38
2022-10-18T16:52:52.778Z,93.59
2022-10-18T16:53:52.768Z,93.89
2022-10-18T16:54:52.756Z,94.04
2022-10-18T16:55:52.747Z,94.34
2022-10-18T16:56:52.747Z,94.45
2022-10-18T16:57:52.727Z,94.95
2022-10-18T16:58:52.706Z,94.55
2022-10-18T16:59:52.698Z,94.34
2022-10-18T17:00:52.723Z,94.75
2022-10-18T17:01:52.788Z,95.10
2022-10-18T17:02:52.722Z,94.79
2022-10-18T17:03:52.681Z,94.49
2022-10-18T17:04:52.642Z,95.51
2022-10-18T17:05:52.633Z,95.72
2022-10-18T17:06:52.646Z,95.76
2022-10-18T17:07:52.619Z,95.86
2022-10-18T17:08:52.642Z,96.06
2022-10-18T17:09:52.593Z,96.68
2022-10-18T17:10:52.577Z,97.49
2022-10-18T17:11:52.575Z,97.64
2022-10-18T17:12:52.549Z,97.24
2022-10-18T17:13:52.551Z,97.44
2022-10-18T17:14:52.529Z,97.64
2022-10-18T17:15:52.530Z,98.36
2022-10-18T17:16:55.947Z,98.56
2022-10-18T17:17:52.505Z,98.77
2022-10-18T17:18:52.494Z,98.86
2022-10-18T17:19:52.480Z,98.86
2022-10-18T17:20:52.471Z,99.52
2022-10-18T17:21:52.481Z,99.89
2022-10-18T17:22:52.444Z,99.84
2022-10-18T17:23:52.445Z,99.73
2022-10-18T17:24:52.441Z,99.84
2022-10-18T17:26:05.387Z,99.43
2022-10-18T17:26:52.432Z,99.63
2022-10-18T17:27:52.397Z,99.98
2022-10-18T17:28:52.426Z,99.99
2022-10-18T17:29:52.373Z,99.99
2022-10-18T17:30:52.365Z,99.99
2022-10-18T17:31:52.352Z,99.99
2022-10-18T17:32:53.223Z,99.99
2022-10-18T17:33:52.328Z,99.99
2022-10-18T17:34:52.320Z,99.99
2022-10-18T17:35:52.310Z,99.99
2022-10-18T17:36:52.294Z,99.99
2022-10-18T17:37:52.301Z,99.99
2022-10-18T17:38:52.269Z,99.99
2022-10-18T17:39:52.261Z,99.99
2022-10-18T17:40:52.252Z,99.99
2022-10-18T17:41:52.242Z,99.99